Airport View

Enter AWOS ICAO identifier for current METAR.

ex. KFNL

KABI 212252Z 18014G23KT 10SM SCT090 33/15 A2993 RMK AO2 SLP106 T03280150 $

22 Sep 2019 00:00

Phone: 325-676-6367

Other Area AWOS: KDYS - KGZN - KCOM - KSWW

TAF KABI 211743Z 2118/2218 17018G25KT P6SM BKN050 FM220100 16010KT P6SM BKN100 FM221200 17013G19KT P6SM SCT025